createdAt,value
2018-11-03T00:00:40.671Z,0.00
2018-11-03T00:01:40.676Z,0.00
2018-11-03T00:02:40.688Z,0.00
2018-11-03T00:03:40.698Z,0.00
2018-11-03T00:04:40.712Z,0.00
2018-11-03T00:05:40.721Z,0.00
2018-11-03T00:06:40.733Z,0.00
2018-11-03T00:07:40.753Z,0.00
2018-11-03T00:08:40.762Z,0.00
2018-11-03T00:09:40.769Z,0.00
2018-11-03T00:10:40.779Z,0.00
2018-11-03T00:11:40.791Z,0.00
2018-11-03T00:12:40.806Z,0.00
2018-11-03T00:13:40.892Z,0.00
2018-11-03T00:14:40.824Z,0.00
2018-11-03T00:15:40.841Z,0.00
2018-11-03T00:16:40.850Z,0.00
2018-11-03T00:17:40.863Z,0.00
2018-11-03T00:18:40.875Z,0.00
2018-11-03T00:19:40.888Z,0.00
2018-11-03T00:20:40.899Z,0.00
2018-11-03T00:21:40.913Z,0.00
2018-11-03T00:22:40.921Z,0.00
2018-11-03T00:23:40.929Z,0.00
2018-11-03T00:24:40.945Z,0.00
2018-11-03T00:25:40.956Z,0.00
2018-11-03T00:26:40.967Z,0.00
2018-11-03T00:27:40.977Z,0.00
2018-11-03T00:28:40.988Z,0.00
2018-11-03T00:29:41.002Z,0.00
2018-11-03T00:30:41.014Z,0.00
2018-11-03T00:31:41.029Z,0.00
2018-11-03T00:32:41.036Z,0.00
2018-11-03T00:33:41.047Z,0.00
2018-11-03T00:34:41.058Z,0.00
2018-11-03T00:35:41.073Z,0.00
2018-11-03T00:36:41.110Z,0.00
2018-11-03T00:37:41.097Z,0.00
2018-11-03T00:38:41.108Z,0.00
2018-11-03T00:39:41.123Z,0.00
2018-11-03T00:40:41.192Z,0.00
2018-11-03T00:41:41.150Z,0.00
2018-11-03T00:42:41.176Z,0.00
2018-11-03T00:43:41.164Z,0.00
2018-11-03T00:44:41.175Z,0.00
2018-11-03T00:45:41.187Z,0.00
2018-11-03T00:46:41.198Z,0.00
2018-11-03T00:47:41.211Z,0.00
2018-11-03T00:48:41.231Z,0.00
2018-11-03T00:49:41.236Z,0.00
2018-11-03T00:50:41.241Z,0.00
2018-11-03T00:51:41.266Z,0.00
2018-11-03T00:52:41.271Z,0.00
2018-11-03T00:53:41.283Z,0.00
2018-11-03T00:54:41.289Z,0.00
2018-11-03T00:55:41.304Z,0.00
2018-11-03T00:56:41.315Z,0.00
2018-11-03T00:57:41.324Z,0.00
2018-11-03T00:58:41.338Z,0.00
2018-11-03T00:59:41.368Z,0.00
2018-11-03T01:00:41.363Z,0.00
2018-11-03T01:01:41.375Z,0.00
2018-11-03T01:02:41.398Z,0.00
2018-11-03T01:03:41.398Z,0.00
2018-11-03T01:04:41.411Z,0.00
2018-11-03T01:05:41.420Z,0.00
2018-11-03T01:06:41.442Z,0.00
2018-11-03T01:07:41.448Z,0.00
2018-11-03T01:08:41.455Z,0.00
2018-11-03T01:09:41.471Z,0.00
2018-11-03T01:10:41.477Z,0.00
2018-11-03T01:11:41.485Z,0.00
2018-11-03T01:12:41.501Z,0.00
2018-11-03T01:13:41.510Z,0.00
2018-11-03T01:14:41.524Z,0.00
2018-11-03T01:15:41.539Z,0.00
2018-11-03T01:16:41.546Z,0.00
2018-11-03T01:17:41.557Z,0.00
2018-11-03T01:18:41.567Z,0.00
2018-11-03T01:19:41.613Z,0.00
2018-11-03T01:20:41.593Z,0.00
2018-11-03T01:21:41.613Z,0.00
2018-11-03T01:22:41.626Z,0.00
2018-11-03T01:23:41.709Z,0.00
2018-11-03T01:24:41.640Z,0.00
2018-11-03T01:25:41.647Z,0.00
2018-11-03T01:26:41.660Z,0.00
2018-11-03T01:27:41.675Z,0.00
2018-11-03T01:28:41.688Z,0.00
2018-11-03T01:29:41.702Z,0.00
2018-11-03T01:30:41.704Z,0.00
2018-11-03T01:31:41.719Z,0.00
2018-11-03T01:32:41.812Z,0.00
2018-11-03T01:33:41.740Z,0.00
2018-11-03T01:34:41.754Z,0.00
2018-11-03T01:35:41.763Z,0.00
2018-11-03T01:36:41.774Z,0.00
2018-11-03T01:37:41.787Z,0.00
2018-11-03T01:38:41.799Z,0.00
2018-11-03T01:39:41.810Z,0.00
2018-11-03T01:40:41.821Z,0.00
2018-11-03T01:41:41.833Z,0.00
2018-11-03T01:42:41.846Z,0.00
2018-11-03T01:43:41.866Z,0.00
2018-11-03T01:44:41.868Z,0.00
2018-11-03T01:45:41.879Z,0.00
2018-11-03T01:46:41.906Z,0.00
2018-11-03T01:47:41.903Z,0.00
2018-11-03T01:48:41.913Z,0.00
2018-11-03T01:49:41.922Z,0.00
2018-11-03T01:50:41.940Z,0.00
2018-11-03T01:51:41.943Z,0.00
2018-11-03T01:52:41.956Z,0.00
2018-11-03T01:53:41.965Z,0.00
2018-11-03T01:54:41.983Z,0.00
2018-11-03T01:55:42.022Z,0.00
2018-11-03T01:56:42.002Z,0.00
2018-11-03T01:57:42.013Z,0.00
2018-11-03T01:58:42.023Z,0.00
2018-11-03T01:59:42.035Z,0.00
2018-11-03T02:00:42.052Z,0.00
2018-11-03T02:01:42.059Z,0.00
2018-11-03T02:02:42.073Z,0.00
2018-11-03T02:03:42.085Z,0.00
2018-11-03T02:04:42.095Z,0.00
2018-11-03T02:05:42.139Z,0.00
2018-11-03T02:06:42.123Z,0.00
2018-11-03T02:07:42.133Z,0.00
2018-11-03T02:08:42.144Z,0.00
2018-11-03T02:09:42.149Z,0.00
2018-11-03T02:10:42.162Z,0.00
2018-11-03T02:11:42.179Z,0.00
2018-11-03T02:12:42.188Z,0.00
2018-11-03T02:13:42.197Z,0.00
2018-11-03T02:14:42.210Z,0.00
2018-11-03T02:15:42.220Z,0.00
2018-11-03T02:16:42.228Z,0.00
2018-11-03T02:17:42.247Z,0.00
2018-11-03T02:18:42.256Z,0.00
2018-11-03T02:19:42.269Z,0.00
2018-11-03T02:20:42.276Z,0.00
2018-11-03T02:21:42.288Z,0.00
2018-11-03T02:22:42.300Z,0.00
2018-11-03T02:23:42.310Z,0.00
2018-11-03T02:24:42.324Z,0.00
2018-11-03T02:25:42.332Z,0.00
2018-11-03T02:26:42.388Z,0.00
2018-11-03T02:27:42.357Z,0.00
2018-11-03T02:28:42.375Z,0.00
2018-11-03T02:29:42.377Z,0.00
2018-11-03T02:30:42.391Z,0.00
2018-11-03T02:31:42.403Z,0.00
2018-11-03T02:32:42.419Z,0.00
2018-11-03T02:33:42.427Z,0.00
2018-11-03T02:34:42.447Z,0.00
2018-11-03T02:35:42.462Z,0.00
2018-11-03T02:36:42.460Z,0.00
2018-11-03T02:37:42.468Z,0.00
2018-11-03T02:38:42.485Z,0.00
2018-11-03T02:39:42.531Z,0.00
2018-11-03T02:40:42.504Z,0.00
2018-11-03T02:41:42.512Z,0.00
2018-11-03T02:42:42.533Z,0.00
2018-11-03T02:43:42.542Z,0.00
2018-11-03T02:44:42.550Z,0.00
2018-11-03T02:45:42.562Z,0.00
2018-11-03T02:46:42.571Z,0.00
2018-11-03T02:47:42.584Z,0.00
2018-11-03T02:48:42.596Z,0.00
2018-11-03T02:49:42.607Z,0.00
2018-11-03T02:50:42.616Z,0.00
2018-11-03T02:51:42.625Z,0.00
2018-11-03T02:52:42.640Z,0.00
2018-11-03T02:53:42.648Z,0.00
2018-11-03T02:54:42.662Z,0.00
2018-11-03T02:55:42.695Z,0.00
2018-11-03T02:56:42.685Z,0.00
2018-11-03T02:57:42.699Z,0.00
2018-11-03T02:58:42.705Z,0.00
2018-11-03T02:59:42.720Z,0.00
2018-11-03T03:00:42.730Z,0.00
2018-11-03T03:01:42.741Z,0.00
2018-11-03T03:02:42.755Z,0.00
2018-11-03T03:03:42.786Z,0.00
2018-11-03T03:04:42.777Z,0.00
2018-11-03T03:05:42.785Z,0.00
2018-11-03T03:06:42.797Z,0.00
2018-11-03T03:07:42.806Z,0.00
2018-11-03T03:08:42.818Z,0.00
2018-11-03T03:37:34.810Z,0.00
2018-11-03T03:38:34.791Z,0.00
2018-11-03T03:40:26.726Z,0.00
2018-11-03T03:41:26.704Z,0.00
2018-11-03T03:43:18.614Z,0.00
2018-11-03T03:44:18.622Z,0.00
2018-11-03T03:46:10.553Z,0.00
2018-11-03T03:47:10.568Z,0.00
2018-11-03T03:49:02.468Z,0.00
2018-11-03T03:50:02.452Z,0.00
2018-11-03T03:51:54.361Z,0.00
2018-11-03T03:52:54.380Z,0.00
2018-11-03T03:54:46.281Z,0.00
2018-11-03T03:55:46.266Z,0.00
2018-11-03T03:57:38.194Z,0.00
2018-11-03T03:58:38.198Z,0.00
2018-11-03T04:00:30.115Z,0.00
2018-11-03T04:01:30.101Z,0.00
2018-11-03T04:03:22.008Z,0.00
2018-11-03T04:04:22.017Z,0.00
2018-11-03T04:06:13.946Z,0.00
2018-11-03T04:07:13.963Z,0.00
2018-11-03T04:09:05.835Z,0.00
2018-11-03T04:10:05.835Z,0.00
2018-11-03T04:11:57.760Z,0.00
2018-11-03T04:12:57.733Z,0.00
2018-11-03T04:14:49.684Z,0.00
2018-11-03T04:15:49.647Z,0.00
2018-11-03T04:17:41.541Z,0.00
2018-11-03T04:18:41.548Z,0.00
2018-11-03T04:20:33.490Z,0.00
2018-11-03T04:21:33.469Z,0.00
2018-11-03T04:23:25.387Z,0.00
2018-11-03T04:24:25.395Z,0.00
2018-11-03T04:26:17.318Z,0.00
2018-11-03T04:27:17.300Z,0.00
2018-11-03T04:29:09.233Z,0.00
2018-11-03T04:30:09.230Z,0.00
2018-11-03T04:32:01.146Z,0.00
2018-11-03T04:33:01.143Z,0.00
2018-11-03T04:34:53.053Z,0.00
2018-11-03T04:35:53.060Z,0.00
2018-11-03T04:37:44.979Z,0.00
2018-11-03T04:38:44.968Z,0.00
2018-11-03T04:40:36.906Z,0.00
2018-11-03T04:41:36.893Z,0.00
2018-11-03T04:43:28.809Z,0.00
2018-11-03T04:44:28.815Z,0.00
2018-11-03T04:46:20.768Z,0.00
2018-11-03T04:47:20.748Z,0.00
2018-11-03T04:49:12.669Z,0.00
2018-11-03T04:50:12.675Z,0.00
2018-11-03T04:52:04.612Z,0.00
2018-11-03T04:53:04.606Z,0.00
2018-11-03T04:54:56.556Z,0.00
2018-11-03T04:55:56.520Z,0.00
2018-11-03T04:57:48.450Z,0.00
2018-11-03T04:58:48.441Z,0.00
2018-11-03T05:00:40.353Z,0.00
2018-11-03T05:01:40.357Z,0.00
2018-11-03T05:03:32.312Z,0.00
2018-11-03T05:04:32.288Z,0.00
2018-11-03T05:06:24.225Z,0.00
2018-11-03T05:07:24.217Z,0.00
2018-11-03T05:09:16.139Z,0.00
2018-11-03T05:10:16.208Z,0.00
2018-11-03T05:12:08.068Z,0.00
2018-11-03T05:13:08.046Z,0.00
2018-11-03T05:14:59.952Z,0.00
2018-11-03T05:15:59.954Z,0.00
2018-11-03T05:17:51.890Z,0.00
2018-11-03T05:18:51.878Z,0.00
2018-11-03T05:20:43.814Z,0.00
2018-11-03T05:21:43.809Z,0.00
2018-11-03T05:23:35.747Z,0.00
2018-11-03T05:24:35.728Z,0.00
2018-11-03T05:26:27.661Z,0.00
2018-11-03T05:27:27.663Z,0.00
2018-11-03T05:29:19.608Z,0.00
2018-11-03T05:30:19.599Z,0.00
2018-11-03T05:32:11.538Z,0.00
2018-11-03T05:33:11.553Z,0.00
2018-11-03T05:35:03.468Z,0.00
2018-11-03T05:36:03.455Z,0.00
2018-11-03T05:37:55.385Z,0.00
2018-11-03T05:38:55.410Z,0.00
2018-11-03T05:40:47.287Z,0.00
2018-11-03T05:41:47.296Z,0.00
2018-11-03T05:43:39.229Z,0.00
2018-11-03T05:44:39.218Z,0.00
2018-11-03T05:46:31.147Z,0.00
2018-11-03T05:47:31.136Z,0.00
2018-11-03T05:49:23.074Z,0.00
2018-11-03T05:50:23.057Z,0.00
2018-11-03T05:52:14.985Z,0.00
2018-11-03T05:53:14.991Z,0.00
2018-11-03T05:55:06.942Z,0.00
2018-11-03T05:56:06.921Z,0.00
2018-11-03T05:57:58.878Z,0.00
2018-11-03T05:58:58.875Z,0.00
2018-11-03T06:00:50.754Z,0.00
2018-11-03T06:01:50.756Z,0.00
2018-11-03T06:03:42.693Z,0.00
2018-11-03T06:04:42.754Z,0.00
2018-11-03T06:06:34.613Z,0.00
2018-11-03T06:07:34.618Z,0.00
2018-11-03T06:09:26.541Z,0.00
2018-11-03T06:10:26.536Z,0.00
2018-11-03T06:12:18.930Z,0.00
2018-11-03T06:13:18.934Z,0.00
2018-11-03T06:15:10.871Z,0.00
2018-11-03T06:16:10.858Z,0.00
2018-11-03T06:18:02.776Z,5.63
2018-11-03T06:19:02.785Z,5.63
2018-11-03T06:20:54.715Z,5.63
2018-11-03T06:21:54.700Z,5.63
2018-11-03T06:23:46.648Z,5.63
2018-11-03T06:24:46.630Z,5.63
2018-11-03T06:26:38.565Z,0.00
2018-11-03T06:27:38.582Z,5.63
2018-11-03T06:29:30.520Z,5.63
2018-11-03T06:30:30.506Z,5.63
2018-11-03T06:32:22.408Z,5.63
2018-11-03T06:33:22.412Z,5.63
2018-11-03T06:35:14.397Z,5.63
2018-11-03T06:36:14.340Z,5.63
2018-11-03T06:38:06.254Z,11.25
2018-11-03T06:39:06.283Z,11.25
2018-11-03T06:40:58.214Z,11.25
2018-11-03T06:41:58.187Z,11.25
2018-11-03T06:43:50.117Z,11.25
2018-11-03T06:44:50.110Z,11.25
2018-11-03T06:46:42.255Z,16.88
2018-11-03T06:47:42.026Z,16.88
2018-11-03T06:49:33.969Z,16.88
2018-11-03T06:50:33.955Z,16.88
2018-11-03T06:52:25.994Z,22.50
2018-11-03T06:53:25.874Z,22.50
2018-11-03T06:55:17.802Z,22.50
2018-11-03T06:56:17.788Z,22.50
2018-11-03T06:58:09.706Z,28.13
2018-11-03T06:59:09.713Z,28.13
2018-11-03T07:01:01.667Z,28.13
2018-11-03T07:02:01.648Z,33.75
2018-11-03T07:03:53.568Z,33.75
2018-11-03T07:04:53.595Z,33.75
2018-11-03T07:06:45.519Z,39.38
2018-11-03T07:07:45.502Z,39.38
2018-11-03T07:09:37.477Z,39.38
2018-11-03T07:10:37.458Z,39.38
2018-11-03T07:12:29.651Z,45.00
2018-11-03T07:13:29.384Z,45.00
2018-11-03T07:15:21.305Z,45.00
2018-11-03T07:16:21.291Z,45.00
2018-11-03T07:18:13.203Z,45.00
2018-11-03T07:19:13.211Z,45.00
2018-11-03T07:21:05.144Z,45.00
2018-11-03T07:22:05.130Z,45.00
2018-11-03T07:23:57.059Z,45.00
2018-11-03T07:24:57.070Z,50.63
2018-11-03T07:26:49.009Z,45.00
2018-11-03T07:27:49.010Z,50.63
2018-11-03T07:29:40.956Z,50.63
2018-11-03T07:30:40.929Z,45.00
2018-11-03T07:32:32.888Z,45.00
2018-11-03T07:33:32.864Z,45.00
2018-11-03T07:35:24.803Z,45.00
2018-11-03T07:36:24.785Z,45.00
2018-11-03T07:38:16.702Z,45.00
2018-11-03T07:39:16.714Z,45.00
2018-11-03T07:41:08.854Z,45.00
2018-11-03T07:42:08.650Z,45.00
2018-11-03T07:44:00.562Z,45.00
2018-11-03T07:45:00.567Z,50.63
2018-11-03T07:46:52.511Z,45.00
2018-11-03T07:47:52.586Z,45.00
2018-11-03T07:49:44.422Z,50.63
2018-11-03T07:50:44.435Z,50.63
2018-11-03T07:52:36.389Z,50.63
2018-11-03T07:53:36.360Z,50.63
2018-11-03T07:55:28.282Z,50.63
2018-11-03T07:56:28.296Z,50.63
2018-11-03T07:58:20.238Z,50.63
2018-11-03T07:59:20.220Z,50.63
2018-11-03T08:01:12.168Z,50.63
2018-11-03T08:02:12.158Z,50.63
2018-11-03T08:04:04.085Z,56.25
2018-11-03T08:05:04.090Z,56.25
2018-11-03T08:06:56.034Z,61.88
2018-11-03T08:07:56.020Z,67.50
2018-11-03T08:09:47.948Z,67.50
2018-11-03T08:10:47.959Z,67.50
2018-11-03T08:12:39.896Z,67.50
2018-11-03T08:13:39.884Z,73.13
2018-11-03T08:15:31.807Z,67.50
2018-11-03T08:16:31.809Z,78.75
2018-11-03T08:18:23.759Z,78.75
2018-11-03T08:19:23.741Z,84.38
2018-11-03T08:21:15.648Z,84.38
2018-11-03T08:22:15.678Z,90.00
2018-11-03T08:24:07.686Z,84.38
2018-11-03T08:25:07.591Z,95.63
2018-11-03T08:26:59.551Z,90.00
2018-11-03T08:27:59.534Z,84.38
2018-11-03T08:29:51.440Z,78.75
2018-11-03T08:30:51.448Z,84.38
2018-11-03T08:32:43.386Z,95.63
2018-11-03T08:33:43.372Z,101.25
2018-11-03T08:35:35.305Z,101.25
2018-11-03T08:36:35.315Z,106.88
2018-11-03T08:38:27.264Z,101.25
2018-11-03T08:39:27.323Z,106.88
2018-11-03T08:41:19.359Z,106.88
2018-11-03T08:42:19.366Z,101.25
2018-11-03T08:44:11.317Z,101.25
2018-11-03T08:45:11.308Z,106.88
2018-11-03T08:47:03.272Z,106.88
2018-11-03T08:48:03.312Z,106.88
2018-11-03T08:49:55.208Z,101.25
2018-11-03T08:50:55.213Z,106.88
2018-11-03T08:52:47.165Z,118.13
2018-11-03T08:53:47.135Z,112.50
2018-11-03T08:55:39.072Z,112.50
2018-11-03T08:56:39.074Z,106.88
2018-11-03T08:58:31.017Z,106.88
2018-11-03T08:59:31.052Z,106.88
2018-11-03T09:01:22.933Z,106.88
2018-11-03T09:02:22.944Z,106.88
2018-11-03T09:04:15.381Z,95.63
2018-11-03T09:05:15.370Z,101.25
2018-11-03T09:07:07.353Z,90.00
2018-11-03T09:08:07.298Z,95.63
2018-11-03T09:09:59.231Z,95.63
2018-11-03T09:10:59.262Z,106.88
2018-11-03T09:12:51.203Z,106.88
2018-11-03T09:13:51.181Z,101.25
2018-11-03T09:15:43.106Z,95.63
2018-11-03T09:16:43.113Z,90.00
2018-11-03T09:18:35.050Z,95.63
2018-11-03T09:19:35.041Z,95.63
2018-11-03T09:21:26.979Z,95.63
2018-11-03T09:22:27.030Z,90.00
2018-11-03T09:24:18.932Z,84.38
2018-11-03T09:25:18.925Z,84.38
2018-11-03T09:27:10.843Z,84.38
2018-11-03T09:28:10.860Z,84.38
2018-11-03T09:30:03.308Z,84.38
2018-11-03T09:31:03.297Z,90.00
2018-11-03T09:32:55.210Z,84.38
2018-11-03T09:33:55.222Z,84.38
2018-11-03T09:35:47.172Z,84.38
2018-11-03T09:36:47.158Z,78.75
2018-11-03T09:38:39.178Z,78.75
2018-11-03T09:39:39.121Z,78.75
2018-11-03T09:41:31.046Z,78.75
2018-11-03T09:42:31.063Z,78.75
2018-11-03T09:44:22.988Z,84.38
2018-11-03T09:45:22.979Z,84.38
2018-11-03T09:47:14.901Z,73.13
2018-11-03T09:48:14.909Z,73.13
2018-11-03T09:50:06.841Z,78.75
2018-11-03T09:51:06.905Z,84.38
2018-11-03T09:52:58.764Z,90.00
2018-11-03T09:53:58.770Z,90.00
2018-11-03T09:55:50.735Z,90.00
2018-11-03T09:56:50.701Z,90.00
2018-11-03T09:58:42.627Z,90.00
2018-11-03T09:59:42.630Z,95.63
2018-11-03T10:01:34.583Z,90.00
2018-11-03T10:02:34.569Z,90.00
2018-11-03T10:04:26.528Z,90.00
2018-11-03T10:05:26.517Z,90.00
2018-11-03T10:07:18.438Z,90.00
2018-11-03T10:08:18.448Z,95.63
2018-11-03T10:10:10.383Z,95.63
2018-11-03T10:11:10.364Z,95.63
2018-11-03T10:13:02.298Z,95.63
2018-11-03T10:14:02.302Z,95.63
2018-11-03T10:15:54.311Z,95.63
2018-11-03T10:16:54.242Z,90.00
2018-11-03T10:18:46.149Z,90.00
2018-11-03T10:19:46.157Z,101.25
2018-11-03T10:21:38.096Z,101.25
2018-11-03T10:22:38.107Z,95.63
2018-11-03T10:24:29.999Z,95.63
2018-11-03T10:25:30.017Z,95.63
2018-11-03T10:27:21.963Z,90.00
2018-11-03T10:28:21.950Z,90.00
2018-11-03T10:30:13.883Z,90.00
2018-11-03T10:31:13.874Z,90.00
2018-11-03T10:33:05.799Z,90.00
2018-11-03T10:34:05.808Z,90.00
2018-11-03T10:35:57.751Z,90.00
2018-11-03T10:36:57.743Z,95.63
2018-11-03T10:38:49.691Z,106.88
2018-11-03T10:39:49.726Z,101.25
2018-11-03T10:41:41.646Z,101.25
2018-11-03T10:42:41.635Z,101.25
2018-11-03T10:44:33.536Z,101.25
2018-11-03T10:45:33.556Z,101.25
2018-11-03T10:47:25.491Z,101.25
2018-11-03T10:48:25.473Z,101.25
2018-11-03T10:50:17.388Z,95.63
2018-11-03T10:51:17.400Z,106.88
2018-11-03T10:53:09.347Z,106.88
2018-11-03T10:54:09.336Z,112.50
2018-11-03T10:56:01.275Z,118.13
2018-11-03T10:57:01.266Z,112.50
2018-11-03T10:58:53.197Z,118.13
2018-11-03T10:59:53.196Z,123.75
2018-11-03T11:01:45.133Z,129.38
2018-11-03T11:02:45.115Z,129.38
2018-11-03T11:04:37.048Z,112.50
2018-11-03T11:05:37.058Z,123.75
2018-11-03T11:07:29.001Z,123.75
2018-11-03T11:08:28.991Z,112.50
2018-11-03T11:10:20.903Z,112.50
2018-11-03T11:11:20.912Z,112.50
2018-11-03T11:13:12.862Z,101.25
2018-11-03T11:14:12.891Z,106.88
2018-11-03T11:16:04.783Z,101.25
2018-11-03T11:17:04.882Z,101.25
2018-11-03T11:18:56.767Z,101.25
2018-11-03T11:19:56.748Z,101.25
2018-11-03T11:21:48.732Z,95.63
2018-11-03T11:22:48.693Z,106.88
2018-11-03T11:24:40.687Z,112.50
2018-11-03T11:25:40.628Z,106.88
2018-11-03T11:27:32.583Z,106.88
2018-11-03T11:28:32.603Z,106.88
2018-11-03T11:30:24.517Z,112.50
2018-11-03T11:31:24.686Z,106.88
2018-11-03T11:33:16.460Z,101.25
2018-11-03T11:34:16.454Z,95.63
2018-11-03T11:36:08.394Z,90.00
2018-11-03T11:37:08.397Z,90.00
2018-11-03T11:39:00.339Z,90.00
2018-11-03T11:40:00.347Z,90.00
2018-11-03T11:41:52.259Z,90.00
2018-11-03T11:42:52.278Z,90.00
2018-11-03T11:44:44.185Z,90.00
2018-11-03T11:45:44.177Z,95.63
2018-11-03T11:47:36.120Z,90.00
2018-11-03T11:48:36.141Z,95.63
2018-11-03T11:50:28.040Z,95.63
2018-11-03T11:51:28.045Z,90.00
2018-11-03T11:53:20.002Z,95.63
2018-11-03T11:54:19.978Z,95.63
2018-11-03T11:55:19.989Z,95.63
2018-11-03T11:56:20.006Z,95.63
2018-11-03T11:57:20.029Z,95.63
2018-11-03T11:58:20.037Z,95.63
2018-11-03T11:59:20.055Z,95.63
2018-11-03T12:00:20.074Z,95.63
2018-11-03T12:01:20.084Z,90.00
2018-11-03T12:02:20.174Z,90.00
2018-11-03T12:03:20.116Z,90.00
2018-11-03T12:04:20.133Z,84.38
2018-11-03T12:05:20.146Z,90.00
2018-11-03T12:06:20.165Z,90.00
2018-11-03T12:07:20.180Z,90.00
2018-11-03T12:08:20.196Z,95.63
2018-11-03T12:09:20.215Z,90.00
2018-11-03T12:10:20.228Z,84.38
2018-11-03T12:11:20.241Z,84.38
2018-11-03T12:12:20.258Z,84.38
2018-11-03T12:13:20.279Z,90.00
2018-11-03T12:14:20.288Z,95.63
2018-11-03T12:15:20.302Z,90.00
2018-11-03T12:16:20.468Z,90.00
2018-11-03T12:17:20.332Z,101.25
2018-11-03T12:18:20.348Z,95.63
2018-11-03T12:19:20.361Z,95.63
2018-11-03T12:20:20.381Z,101.25
2018-11-03T12:21:20.393Z,101.25
2018-11-03T12:22:20.416Z,106.88
2018-11-03T12:23:20.426Z,101.25
2018-11-03T12:24:20.441Z,101.25
2018-11-03T12:25:20.471Z,101.25
2018-11-03T12:26:20.509Z,95.63
2018-11-03T12:27:20.486Z,84.38
2018-11-03T12:28:20.505Z,84.38
2018-11-03T12:29:20.527Z,95.63
2018-11-03T12:30:20.534Z,101.25
2018-11-03T12:31:20.549Z,84.38
2018-11-03T12:32:20.564Z,73.13
2018-11-03T12:33:20.580Z,73.13
2018-11-03T12:34:20.601Z,78.75
2018-11-03T12:35:20.608Z,90.00
2018-11-03T12:36:20.626Z,90.00
2018-11-03T12:37:20.643Z,90.00
2018-11-03T12:38:20.653Z,90.00
2018-11-03T12:39:20.678Z,90.00
2018-11-03T12:40:20.685Z,90.00
2018-11-03T12:41:20.739Z,90.00
2018-11-03T12:42:20.722Z,90.00
2018-11-03T12:43:20.732Z,95.63
2018-11-03T12:44:20.747Z,95.63
2018-11-03T12:45:20.767Z,101.25
2018-11-03T12:46:20.785Z,101.25
2018-11-03T12:47:20.792Z,95.63
2018-11-03T12:48:20.814Z,90.00
2018-11-03T12:49:20.824Z,84.38
2018-11-03T12:50:20.839Z,90.00
2018-11-03T12:51:20.852Z,95.63
2018-11-03T12:52:20.870Z,95.63
2018-11-03T12:53:20.887Z,101.25
2018-11-03T12:54:20.899Z,101.25
2018-11-03T12:55:20.918Z,101.25
2018-11-03T12:56:20.951Z,95.63
2018-11-03T12:57:20.944Z,95.63
2018-11-03T12:58:20.968Z,95.63
2018-11-03T12:59:21.079Z,95.63
2018-11-03T13:00:21.033Z,95.63
2018-11-03T13:01:21.006Z,95.63
2018-11-03T13:02:21.022Z,95.63
2018-11-03T13:03:21.126Z,90.00
2018-11-03T13:04:21.068Z,84.38
2018-11-03T13:05:21.285Z,90.00
2018-11-03T13:06:21.087Z,95.63
2018-11-03T13:07:21.096Z,95.63
2018-11-03T13:08:21.247Z,95.63
2018-11-03T13:09:21.238Z,95.63
2018-11-03T13:10:21.147Z,90.00
2018-11-03T13:11:21.157Z,90.00
2018-11-03T13:12:21.172Z,90.00
2018-11-03T13:13:21.189Z,95.63
2018-11-03T13:14:21.201Z,101.25
2018-11-03T13:15:21.267Z,101.25
2018-11-03T13:16:21.237Z,101.25
2018-11-03T13:17:21.249Z,101.25
2018-11-03T13:18:21.264Z,95.63
2018-11-03T13:19:21.277Z,95.63
2018-11-03T13:20:21.292Z,90.00
2018-11-03T13:21:21.310Z,90.00
2018-11-03T13:22:21.326Z,95.63
2018-11-03T13:23:21.345Z,95.63
2018-11-03T13:24:21.357Z,101.25
2018-11-03T13:25:21.373Z,101.25
2018-11-03T13:26:21.384Z,101.25
2018-11-03T13:27:21.402Z,101.25
2018-11-03T13:28:21.416Z,101.25
2018-11-03T13:29:21.434Z,101.25
2018-11-03T13:30:21.447Z,95.63
2018-11-03T13:31:21.463Z,95.63
2018-11-03T13:32:21.474Z,95.63
2018-11-03T13:33:21.491Z,95.63
2018-11-03T13:34:21.508Z,95.63
2018-11-03T13:35:21.518Z,95.63
2018-11-03T13:36:21.539Z,90.00
2018-11-03T13:37:21.551Z,90.00
2018-11-03T13:38:21.565Z,90.00
2018-11-03T13:39:21.584Z,90.00
2018-11-03T13:40:21.597Z,90.00
2018-11-03T13:41:21.614Z,90.00
2018-11-03T13:42:21.625Z,90.00
2018-11-03T13:43:21.645Z,90.00
2018-11-03T13:44:21.658Z,84.38
2018-11-03T13:45:21.671Z,84.38
2018-11-03T13:46:21.690Z,84.38
2018-11-03T13:47:21.864Z,84.38
2018-11-03T13:48:21.723Z,84.38
2018-11-03T13:49:21.734Z,84.38
2018-11-03T13:50:21.749Z,84.38
2018-11-03T13:51:21.766Z,78.75
2018-11-03T13:52:21.783Z,78.75
2018-11-03T13:53:21.798Z,78.75
2018-11-03T13:54:21.815Z,78.75
2018-11-03T13:55:21.832Z,78.75
2018-11-03T13:56:21.845Z,78.75
2018-11-03T13:57:21.871Z,78.75
2018-11-03T13:58:21.870Z,78.75
2018-11-03T13:59:21.887Z,78.75
2018-11-03T14:00:21.903Z,78.75
2018-11-03T14:01:21.925Z,78.75
2018-11-03T14:02:21.936Z,78.75
2018-11-03T14:03:21.955Z,78.75
2018-11-03T14:04:21.965Z,78.75
2018-11-03T14:05:21.980Z,78.75
2018-11-03T14:06:21.993Z,78.75
2018-11-03T14:07:22.029Z,78.75
2018-11-03T14:08:22.024Z,78.75
2018-11-03T14:09:22.040Z,78.75
2018-11-03T14:10:22.055Z,78.75
2018-11-03T14:11:22.144Z,78.75
2018-11-03T14:12:22.088Z,73.13
2018-11-03T14:13:22.100Z,73.13
2018-11-03T14:14:22.117Z,73.13
2018-11-03T14:15:22.130Z,73.13
2018-11-03T14:16:22.144Z,73.13
2018-11-03T14:17:22.254Z,73.13
2018-11-03T14:18:22.180Z,73.13
2018-11-03T14:19:22.191Z,67.50
2018-11-03T14:20:22.207Z,67.50
2018-11-03T14:21:22.224Z,67.50
2018-11-03T14:22:22.240Z,67.50
2018-11-03T14:23:22.304Z,67.50
2018-11-03T14:24:22.268Z,67.50
2018-11-03T14:25:22.286Z,67.50
2018-11-03T14:26:22.299Z,67.50
2018-11-03T14:27:22.312Z,61.88
2018-11-03T14:28:22.326Z,61.88
2018-11-03T14:29:22.469Z,61.88
2018-11-03T14:30:22.359Z,61.88
2018-11-03T14:31:22.370Z,61.88
2018-11-03T14:32:22.388Z,61.88
2018-11-03T14:33:22.447Z,61.88
2018-11-03T14:34:22.415Z,61.88
2018-11-03T14:35:22.429Z,61.88
2018-11-03T14:36:22.540Z,61.88
2018-11-03T14:37:22.464Z,61.88
2018-11-03T14:38:22.476Z,61.88
2018-11-03T14:39:22.491Z,61.88
2018-11-03T14:40:22.506Z,56.25
2018-11-03T14:41:22.520Z,56.25
2018-11-03T14:42:22.537Z,56.25
2018-11-03T14:43:22.551Z,56.25
2018-11-03T14:44:22.566Z,56.25
2018-11-03T14:45:22.619Z,56.25
2018-11-03T14:46:22.595Z,56.25
2018-11-03T14:47:22.612Z,56.25
2018-11-03T14:48:22.625Z,56.25
2018-11-03T14:49:22.660Z,56.25
2018-11-03T14:50:22.651Z,50.63
2018-11-03T14:51:22.728Z,50.63
2018-11-03T14:52:22.697Z,50.63
2018-11-03T14:53:22.748Z,50.63
2018-11-03T14:54:22.711Z,50.63
2018-11-03T14:55:22.728Z,50.63
2018-11-03T14:56:22.796Z,50.63
2018-11-03T14:57:22.755Z,45.00
2018-11-03T14:58:22.773Z,45.00
2018-11-03T14:59:22.793Z,45.00
2018-11-03T15:00:22.801Z,45.00
2018-11-03T15:01:22.815Z,45.00
2018-11-03T15:02:22.831Z,45.00
2018-11-03T15:03:22.844Z,45.00
2018-11-03T15:04:22.861Z,45.00
2018-11-03T15:05:22.873Z,45.00
2018-11-03T15:06:22.886Z,45.00
2018-11-03T15:07:22.908Z,45.00
2018-11-03T15:08:22.960Z,45.00
2018-11-03T15:09:22.934Z,45.00
2018-11-03T15:10:22.945Z,45.00
2018-11-03T15:11:23.080Z,45.00
2018-11-03T15:12:22.976Z,39.38
2018-11-03T15:13:23.057Z,39.38
2018-11-03T15:14:23.129Z,39.38
2018-11-03T15:15:23.018Z,39.38
2018-11-03T15:16:23.039Z,39.38
2018-11-03T15:17:23.052Z,39.38
2018-11-03T15:18:23.063Z,39.38
2018-11-03T15:19:23.075Z,39.38
2018-11-03T15:20:23.094Z,39.38
2018-11-03T15:21:23.109Z,33.75
2018-11-03T15:22:23.160Z,33.75
2018-11-03T15:23:23.136Z,33.75
2018-11-03T15:24:23.151Z,33.75
2018-11-03T15:25:23.173Z,28.13
2018-11-03T15:26:23.179Z,28.13
2018-11-03T15:27:23.194Z,28.13
2018-11-03T15:28:23.209Z,28.13
2018-11-03T15:29:23.225Z,28.13
2018-11-03T15:30:23.235Z,22.50
2018-11-03T15:31:23.256Z,22.50
2018-11-03T15:32:23.325Z,16.88
2018-11-03T15:33:23.280Z,16.88
2018-11-03T15:34:23.300Z,16.88
2018-11-03T15:35:23.312Z,16.88
2018-11-03T15:36:23.324Z,16.88
2018-11-03T15:37:23.338Z,16.88
2018-11-03T15:38:23.357Z,11.25
2018-11-03T15:39:23.366Z,11.25
2018-11-03T15:40:23.380Z,11.25
2018-11-03T15:41:23.467Z,11.25
2018-11-03T15:42:23.412Z,11.25
2018-11-03T15:43:23.424Z,11.25
2018-11-03T15:44:23.490Z,11.25
2018-11-03T15:45:23.453Z,11.25
2018-11-03T15:46:23.465Z,11.25
2018-11-03T15:47:23.480Z,5.63
2018-11-03T15:48:23.496Z,5.63
2018-11-03T15:49:23.523Z,5.63
2018-11-03T15:50:23.523Z,5.63
2018-11-03T15:51:23.555Z,5.63
2018-11-03T15:52:23.554Z,5.63
2018-11-03T15:53:23.583Z,5.63
2018-11-03T15:54:23.578Z,5.63
2018-11-03T15:55:23.597Z,5.63
2018-11-03T15:56:23.606Z,5.63
2018-11-03T15:57:23.618Z,0.00
2018-11-03T15:58:23.637Z,0.00